METAR Data
IDs: Format: Raw Decoded Include TAF

Data at: 1338 UTC 14 Dec 2019

PABT 141253Z 34005KT 10SM CLR M15/M18 A2975 RMK AO2 SLP095 T11501183 $
PABT 141153Z 34006KT 10SM CLR M15/M18 A2974 RMK AO2 SLP093 4/019 T11501183 11139 21167 50001 $
PABT 141053Z 00000KT 10SM CLR M16/M18 A2975 RMK AO2 SLP096 T11561183 $
PABT 140953Z 34004KT 10SM CLR M15/M18 A2974 RMK AO2 SLP094 T11501183 $
PABT 140853Z COR 32004KT 10SM CLR M16/M18 A2974 RMK AO2 SLP092 T11561183 411161261 53004 $
PABT 140753Z 34004KT 10SM CLR M15/M18 A2973 RMK AO2 SLP090 T11501183 $
PABT 140653Z 33005KT 10SM CLR M14/M18 A2973 RMK AO2 SLP090 T11441183 $
PABT 140553Z 28003KT 10SM FEW080 M14/M18 A2973 RMK AO2 SLP087 4/020 T11441178 11117 21161 53012 $
PABT 140453Z 31005KT 10SM SCT080 M13/M14 A2971 RMK AO2 SLP081 T11331144 $
PABT 140353Z 32004KT 10SM BKN080 M13/M17 A2970 RMK AO2 SLP079 T11281167 $
PABT 140253Z 33003KT 10SM SCT048 BKN075 M12/M16 A2969 RMK AO2 SLP077 T11171156 53006 $
PABT 140153Z 32005KT 10SM SCT048 BKN075 M13/M14 A2968 RMK AO2 SLP075 T11281144 $
PABT 140053Z 34003KT 10SM SCT050 BKN090 M14/M17 A2968 RMK AO2 SLP076 T11391172 $
PABT 132353Z 00000KT 10SM FEW045 SCT050 BKN090 M16/M19 A2967 RMK AO2 SLP074 4/020 T11611189 11144 21194 51023 $
PABT 132253Z 00000KT 10SM FEW045 SCT050 M19/M21 A2966 RMK AO2 SLP069 T11891211
PABT 132153Z 00000KT 10SM FEW045 SCT050 M18/M21 A2964 RMK AO2 SLP063 T11781206
PABT 131953Z 32005KT 10SM FEW060 M17/M20 A2958 RMK AO2 SLP044 T11671200 $
PABT 131853Z 32003KT 10SM FEW050 M16/M19 A2957 RMK AO2 SLP037 T11561194 $
PABT 131753Z 35004KT 10SM FEW040 M14/M18 A2955 RMK AO2 SLP030 4/020 T11441178 11067 21250 53008 $
PABT 131553Z 30004KT 10SM CLR M19/M22 A2952 RMK AO2 SLP020 T11941222
PABT 131453Z 28008KT 10SM CLR M22/M25 A2952 RMK AO2 SLP023 T12221250 50002
PABT 131353Z 00000KT 10SM CLR M24/M27 A2953 RMK AO2 SLP028 T12441272
PABT 131253Z 00000KT 10SM CLR M24/M27 A2952 RMK AO2 SLP023 T12391267
PABT 131153Z 02007KT 10SM CLR M23/M25 A2951 RMK AO2 SLP020 4/020 T12281250 11211 21267 58010
PABT 131053Z 05006KT 10SM CLR M23/M26 A2954 RMK AO2 SLP029 T12281256
PABT 130953Z 04003KT 10SM CLR M25/M27 A2954 RMK AO2 SLP030 T12501267
PABT 130853Z 06004KT 10SM CLR M26/M28 A2954 RMK AO2 SLP030 T12611283 410561267 56005
PABT 130753Z 00000KT 10SM CLR M26/M29 A2954 RMK AO2 SLP031 T12611289
PABT 130653Z VRB04KT 10SM CLR M24/M27 A2955 RMK AO2 SLP033 T12441272
PABT 130553Z 00000KT 10SM CLR M25/M27 A2956 RMK AO2 SLP034 4/020 T12501272 11200 21250 58011
PABT 130453Z 00000KT 10SM CLR M23/M26 A2957 RMK AO2 SLP040 T12331256
PABT 130353Z VRB03KT 10SM CLR M22/M24 A2958 RMK AO2 SLP042 T12221244
PABT 130253Z 02004KT 10SM CLR M23/M26 A2959 RMK AO2 SLP044 T12331256 58005
PABT 130153Z COR VRB04KT 10SM CLR M22/M24 A2960 RMK AO2 SLP044 T12171244